Time;durP1;ratioP1;P1;durP2;ratioP2;P2;SDS_P1;SDS_P2;PMS_P1;PMS_P2;Temp;Humidity;BMP_temperature;BMP_pressure;BME280_temperature;BME280_humidity;BME280_pressure;Samples;Min_cycle;Max_cycle;Signal;HPM_P1;HPM_P2
2023/09/16 00:00:12;;;;;;;;;;;;;;;16.96;100.00;99972.94;5034514;28;848;-67
2023/09/16 00:02:39;;;;;;;;;;;;;;;17.05;100.00;99984.28;5034579;28;984;-67
2023/09/16 00:05:06;;;;;;;;;;;;;;;17.11;100.00;99979.72;5034307;28;1941;-67
2023/09/16 00:07:32;;;;;;;;;;;;;;;17.16;100.00;99978.38;5034474;28;859;-67
2023/09/16 00:09:59;;;;;;;;;;;;;;;17.12;100.00;99972.88;5034467;28;851;-67
2023/09/16 00:12:27;;;;;;;;;;;;;;;17.10;100.00;99971.78;5016629;28;1045;-67
2023/09/16 00:14:54;;;;;;;;;;;;;;;17.06;100.00;99987.84;5034244;28;1307;-67
2023/09/16 00:17:22;;;;;;;;;;;;;;;17.01;100.00;99988.41;5034259;28;864;-67
2023/09/16 00:19:50;;;;;;;;;;;;;;;16.99;100.00;99988.06;5016463;28;1228;-67
2023/09/16 00:22:21;;;;;;;;;;;;;;;17.02;100.00;99993.53;5034187;28;833;-67
2023/09/16 00:24:48;;;;;;;;;;;;;;;17.03;100.00;99994.31;5016422;28;1474;-67
2023/09/16 00:27:15;;;;;;;;;;;;;;;17.01;100.00;99996.78;5034013;28;1914;-67
2023/09/16 00:29:42;;;;;;;;;;;;;;;17.04;100.00;99993.09;5034182;28;812;-67
2023/09/16 00:32:09;;;;;;;;;;;;;;;17.05;100.00;100000.25;5033984;28;891;-67
2023/09/16 00:34:36;;;;;;;;;;;;;;;17.05;100.00;99998.25;5033976;28;899;-67
2023/09/16 00:37:03;;;;;;;;;;;;;;;17.02;100.00;99999.09;5033940;28;832;-67
2023/09/16 00:39:32;;;;;;;;;;;;;;;16.90;100.00;100002.66;5033843;28;829;-67
2023/09/16 00:41:58;;;;;;;;;;;;;;;16.80;100.00;100004.50;5034182;28;820;-66
2023/09/16 00:44:25;;;;;;;;;;;;;;;16.70;100.00;99999.97;5034097;28;892;-67
2023/09/16 00:46:53;;;;;;;;;;;;;;;16.64;100.00;99999.72;5033686;28;1889;-67
2023/09/16 00:49:20;;;;;;;;;;;;;;;16.71;100.00;100007.13;5033859;28;852;-67
2023/09/16 00:51:47;;;;;;;;;;;;;;;16.83;100.00;100003.63;5033629;28;914;-67
2023/09/16 00:54:14;;;;;;;;;;;;;;;16.88;100.00;100003.09;5033831;28;915;-67
2023/09/16 00:56:42;;;;;;;;;;;;;;;16.94;100.00;100015.28;5033535;28;942;-67
2023/09/16 00:59:10;;;;;;;;;;;;;;;16.94;100.00;100014.47;5033622;28;1006;-66
2023/09/16 01:01:38;;;;;;;;;;;;;;;16.77;100.00;100013.75;5033428;28;828;-66
2023/09/16 01:04:05;;;;;;;;;;;;;;;16.60;100.00;100023.34;5033404;28;871;-67
2023/09/16 01:06:33;;;;;;;;;;;;;;;16.46;100.00;100013.34;5031978;28;1951;-67
2023/09/16 01:09:00;;;;;;;;;;;;;;;16.34;100.00;100012.03;5033364;28;879;-67
2023/09/16 01:11:28;;;;;;;;;;;;;;;16.30;100.00;100016.94;5033374;28;927;-66
2023/09/16 01:13:55;;;;;;;;;;;;;;;16.31;100.00;100018.50;5033088;28;1238;-66
2023/09/16 01:16:22;;;;;;;;;;;;;;;16.34;100.00;100017.63;5033201;28;832;-67
2023/09/16 01:18:51;;;;;;;;;;;;;;;16.41;100.00;100023.03;5033024;28;902;-66
2023/09/16 01:21:22;;;;;;;;;;;;;;;16.58;100.00;100020.22;5033364;28;1330;-67
2023/09/16 01:24:09;;;;;;;;;;;;;;;16.70;100.00;100031.44;5032447;28;828;-66
2023/09/16 01:26:36;;;;;;;;;;;;;;;16.66;100.00;100022.41;5032856;28;1914;-67
2023/09/16 01:29:03;;;;;;;;;;;;;;;16.63;100.00;100033.66;5033072;28;829;-66
2023/09/16 01:31:31;;;;;;;;;;;;;;;16.66;100.00;100029.97;5032891;28;828;-66
2023/09/16 01:34:00;;;;;;;;;;;;;;;16.67;100.00;100039.94;5032744;28;860;-66
2023/09/16 01:36:28;;;;;;;;;;;;;;;16.58;100.00;100045.31;5032999;28;883;-67
2023/09/16 01:38:59;;;;;;;;;;;;;;;16.46;100.00;100044.81;5032806;28;879;-67
2023/09/16 01:41:27;;;;;;;;;;;;;;;16.36;100.00;100050.66;5032620;28;848;-67
2023/09/16 01:43:54;;;;;;;;;;;;;;;16.26;100.00;100053.28;5032764;28;868;-67
2023/09/16 01:46:22;;;;;;;;;;;;;;;16.21;100.00;100055.81;5032502;28;1917;-67
2023/09/16 01:48:49;;;;;;;;;;;;;;;16.23;100.00;100058.94;5032599;28;855;-67
2023/09/16 01:51:17;;;;;;;;;;;;;;;16.21;100.00;100053.03;5032841;28;921;-67
2023/09/16 01:53:45;;;;;;;;;;;;;;;16.17;100.00;100064.25;5032450;28;831;-67
2023/09/16 01:56:12;;;;;;;;;;;;;;;16.25;100.00;100067.66;5032446;28;855;-67
2023/09/16 01:58:38;;;;;;;;;;;;;;;16.38;100.00;100060.16;5032452;28;843;-67
2023/09/16 02:01:10;;;;;;;;;;;;;;;16.41;100.00;100062.09;5032366;28;906;-67
2023/09/16 02:03:36;;;;;;;;;;;;;;;16.41;100.00;100061.28;5032509;28;864;-67
2023/09/16 02:06:05;;;;;;;;;;;;;;;16.41;100.00;100062.09;5032267;28;1981;-67
2023/09/16 02:08:32;;;;;;;;;;;;;;;16.41;100.00;100064.06;5014528;28;832;-66
2023/09/16 02:11:04;;;;;;;;;;;;;;;16.44;100.00;100066.78;5032245;28;1031;-68
2023/09/16 02:13:35;;;;;;;;;;;;;;;16.43;100.00;100075.59;5031859;28;1265;-67
2023/09/16 02:16:03;;;;;;;;;;;;;;;16.46;100.00;100069.94;5032092;28;915;-67
2023/09/16 02:18:28;;;;;;;;;;;;;;;16.56;100.00;100067.28;5032060;28;856;-66
2023/09/16 02:20:55;;;;;;;;;;;;;;;16.63;100.00;100067.91;5032088;28;820;-67
2023/09/16 02:23:22;;;;;;;;;;;;;;;16.70;100.00;100067.72;5031892;28;879;-67
2023/09/16 02:25:49;;;;;;;;;;;;;;;16.71;100.00;100079.69;5031839;28;1971;-67
2023/09/16 02:28:16;;;;;;;;;;;;;;;16.67;100.00;100079.00;5032029;28;941;-66
2023/09/16 02:30:42;;;;;;;;;;;;;;;16.60;100.00;100084.72;5031903;28;867;-66
2023/09/16 02:33:08;;;;;;;;;;;;;;;16.53;100.00;100078.09;5032250;28;848;-67
2023/09/16 02:35:38;;;;;;;;;;;;;;;16.55;100.00;100080.47;5013429;28;1173;-67
2023/09/16 02:38:05;;;;;;;;;;;;;;;16.61;100.00;100070.34;5014002;28;861;-67
2023/09/16 02:40:32;;;;;;;;;;;;;;;16.73;100.00;100086.41;5031954;28;895;-67
2023/09/16 02:42:58;;;;;;;;;;;;;;;16.80;100.00;100090.22;5031747;28;900;-67
2023/09/16 02:45:26;;;;;;;;;;;;;;;16.82;100.00;100085.81;5031687;28;1894;-67
2023/09/16 02:47:53;;;;;;;;;;;;;;;16.80;100.00;100088.25;5031702;28;817;-67
2023/09/16 02:50:20;;;;;;;;;;;;;;;16.76;100.00;100087.53;5031751;28;903;-67
2023/09/16 02:52:48;;;;;;;;;;;;;;;16.69;100.00;100087.72;5031530;28;822;-67
2023/09/16 02:55:16;;;;;;;;;;;;;;;16.59;100.00;100089.53;5031716;28;859;-66
2023/09/16 02:57:42;;;;;;;;;;;;;;;16.48;100.00;100094.59;5031537;28;915;-67
2023/09/16 03:00:10;;;;;;;;;;;;;;;16.39;100.00;100086.06;5031583;28;965;-67
2023/09/16 03:02:37;;;;;;;;;;;;;;;16.29;100.00;100085.88;5031602;28;820;-67
2023/09/16 03:05:04;;;;;;;;;;;;;;;16.21;100.00;100078.91;5031580;28;813;-66
2023/09/16 03:07:32;;;;;;;;;;;;;;;16.18;100.00;100081.78;5031577;28;1906;-67
2023/09/16 03:09:59;;;;;;;;;;;;;;;16.15;100.00;100080.63;5031514;28;857;-66
2023/09/16 03:12:26;;;;;;;;;;;;;;;16.10;100.00;100087.50;5031782;28;911;-67
2023/09/16 03:14:53;;;;;;;;;;;;;;;16.03;100.00;100090.47;5031234;28;1406;-67
2023/09/16 03:17:20;;;;;;;;;;;;;;;15.97;100.00;100086.63;5031612;28;825;-67
2023/09/16 03:19:47;;;;;;;;;;;;;;;15.94;100.00;100095.88;5031365;28;833;-67
2023/09/16 03:22:14;;;;;;;;;;;;;;;15.92;100.00;100087.91;5031320;28;903;-66
2023/09/16 03:24:41;;;;;;;;;;;;;;;15.87;100.00;100088.44;5031381;28;864;-67
2023/09/16 03:27:08;;;;;;;;;;;;;;;15.85;100.00;100093.66;5013556;28;1969;-67
2023/09/16 03:29:35;;;;;;;;;;;;;;;15.83;100.00;100093.31;5031326;28;880;-67
2023/09/16 03:32:02;;;;;;;;;;;;;;;15.87;100.00;100084.84;5031249;28;843;-67
2023/09/16 03:34:29;;;;;;;;;;;;;;;15.85;100.00;100082.53;5031520;28;915;-67
2023/09/16 03:36:56;;;;;;;;;;;;;;;15.83;100.00;100096.09;5031508;28;828;-67
2023/09/16 03:39:24;;;;;;;;;;;;;;;15.79;100.00;100097.38;5031314;28;859;-67
2023/09/16 03:41:51;;;;;;;;;;;;;;;15.71;100.00;100103.09;5031172;28;805;-67
2023/09/16 03:44:18;;;;;;;;;;;;;;;15.65;100.00;100102.00;5031380;28;840;-67
2023/09/16 03:46:45;;;;;;;;;;;;;;;15.59;100.00;100092.56;5031103;28;1889;-67
2023/09/16 03:49:12;;;;;;;;;;;;;;;15.61;100.00;100104.06;5034806;28;848;-67
2023/09/16 03:51:40;;;;;;;;;;;;;;;15.69;100.00;100096.38;5016877;28;1260;-67
2023/09/16 03:54:07;;;;;;;;;;;;;;;15.75;100.00;100093.91;5034759;28;796;-67
2023/09/16 03:56:34;;;;;;;;;;;;;;;15.80;100.00;100105.31;5034683;28;832;-67
2023/09/16 03:59:00;;;;;;;;;;;;;;;15.85;100.00;100110.38;5033351;28;1369;-67
2023/09/16 04:01:27;;;;;;;;;;;;;;;15.85;100.00;100106.78;5034571;28;1035;-67
2023/09/16 04:03:55;;;;;;;;;;;;;;;15.84;100.00;100108.81;5034556;28;848;-67
2023/09/16 04:06:21;;;;;;;;;;;;;;;15.92;100.00;100112.22;5034460;28;1956;-67
2023/09/16 04:08:48;;;;;;;;;;;;;;;16.06;100.00;100111.91;5034508;28;899;-67
2023/09/16 04:11:15;;;;;;;;;;;;;;;16.19;100.00;100114.00;5034466;28;900;-67
2023/09/16 04:13:43;;;;;;;;;;;;;;;16.27;100.00;100118.22;5034089;28;1288;-67
2023/09/16 04:16:11;;;;;;;;;;;;;;;16.31;100.00;100118.91;5034454;28;895;-67
2023/09/16 04:18:37;;;;;;;;;;;;;;;16.33;100.00;100122.84;5016528;28;1295;-67
2023/09/16 04:21:06;;;;;;;;;;;;;;;16.37;100.00;100124.78;5034071;28;873;-67
2023/09/16 04:23:35;;;;;;;;;;;;;;;16.41;100.00;100128.25;5034222;28;820;-67
2023/09/16 04:26:02;;;;;;;;;;;;;;;16.46;100.00;100131.31;5034032;28;1914;-67
2023/09/16 04:28:29;;;;;;;;;;;;;;;16.53;100.00;100125.53;5034070;28;915;-67
2023/09/16 04:30:57;;;;;;;;;;;;;;;16.58;100.00;100126.25;5034001;28;837;-67
2023/09/16 04:33:24;;;;;;;;;;;;;;;16.64;100.00;100128.09;5034367;28;925;-67
2023/09/16 04:35:51;;;;;;;;;;;;;;;16.66;100.00;100127.63;5033965;28;894;-67
2023/09/16 04:38:19;;;;;;;;;;;;;;;16.67;100.00;100127.22;5034011;28;919;-67
2023/09/16 04:40:47;;;;;;;;;;;;;;;16.68;100.00;100128.75;5033882;28;859;-67
2023/09/16 04:43:15;;;;;;;;;;;;;;;16.72;100.00;100135.03;5033779;28;880;-67
2023/09/16 04:45:45;;;;;;;;;;;;;;;16.77;100.00;100130.97;5033697;28;1940;-67
2023/09/16 04:48:13;;;;;;;;;;;;;;;16.88;100.00;100133.53;5033846;28;1034;-67
2023/09/16 04:50:41;;;;;;;;;;;;;;;16.95;100.00;100133.31;5033586;28;816;-67
2023/09/16 04:53:08;;;;;;;;;;;;;;;17.03;100.00;100131.94;5033737;28;867;-68
2023/09/16 04:55:36;;;;;;;;;;;;;;;17.16;100.00;100137.56;5015795;28;1339;-67
2023/09/16 04:58:03;;;;;;;;;;;;;;;17.31;100.00;100137.97;5033587;28;877;-68
2023/09/16 05:00:33;;;;;;;;;;;;;;;17.43;100.00;100140.03;5032522;28;816;-67
2023/09/16 05:03:00;;;;;;;;;;;;;;;17.58;100.00;100134.84;5033529;28;902;-67
2023/09/16 05:05:28;;;;;;;;;;;;;;;17.73;100.00;100135.19;5033248;28;1938;-68
2023/09/16 05:07:55;;;;;;;;;;;;;;;17.80;100.00;100139.81;5033587;28;809;-67
2023/09/16 05:10:22;;;;;;;;;;;;;;;17.95;100.00;100147.34;5033245;28;820;-68
2023/09/16 05:12:49;;;;;;;;;;;;;;;18.15;100.00;100138.75;5032946;28;1194;-67
2023/09/16 05:15:16;;;;;;;;;;;;;;;18.29;100.00;100143.13;5033170;28;944;-68
2023/09/16 05:17:44;;;;;;;;;;;;;;;18.44;100.00;100137.09;5033298;28;891;-68
2023/09/16 05:20:11;;;;;;;;;;;;;;;18.59;100.00;100134.63;5033000;28;903;-68
2023/09/16 05:22:38;;;;;;;;;;;;;;;18.87;100.00;100130.09;5033322;28;834;-68
2023/09/16 05:25:06;;;;;;;;;;;;;;;19.15;100.00;100128.34;5033007;28;891;-68
2023/09/16 05:27:33;;;;;;;;;;;;;;;19.48;100.00;100127.97;5032927;28;1934;-68
2023/09/16 05:30:01;;;;;;;;;;;;;;;19.79;100.00;100134.44;5032969;28;876;-68
2023/09/16 05:32:29;;;;;;;;;;;;;;;20.06;100.00;100132.25;5033043;28;923;-68
2023/09/16 05:34:56;;;;;;;;;;;;;;;20.16;100.00;100133.84;5032922;28;828;-68
2023/09/16 05:37:23;;;;;;;;;;;;;;;20.26;100.00;100135.47;5015005;28;1277;-68
2023/09/16 05:39:48;;;;;;;;;;;;;;;20.30;100.00;100138.91;5033085;28;907;-68
2023/09/16 05:42:15;;;;;;;;;;;;;;;20.51;100.00;100139.31;5032714;28;840;-68
2023/09/16 05:44:42;;;;;;;;;;;;;;;20.63;100.00;100143.25;5032629;28;914;-69
2023/09/16 05:47:10;;;;;;;;;;;;;;;20.67;100.00;100149.50;5032627;28;1886;-68
2023/09/16 05:49:37;;;;;;;;;;;;;;;20.66;100.00;100154.34;5032731;28;891;-69
2023/09/16 05:52:04;;;;;;;;;;;;;;;20.74;100.00;100161.25;5032585;28;858;-69
2023/09/16 05:54:31;;;;;;;;;;;;;;;20.83;100.00;100151.28;5032466;28;841;-68
2023/09/16 05:56:59;;;;;;;;;;;;;;;21.19;100.00;100156.16;5032413;28;930;-69
2023/09/16 05:59:27;;;;;;;;;;;;;;;21.61;100.00;100150.72;5032408;28;854;-69
2023/09/16 06:01:54;;;;;;;;;;;;;;;21.80;100.00;100164.72;5032476;28;895;-68
2023/09/16 06:04:21;;;;;;;;;;;;;;;21.89;100.00;100163.94;5032308;28;907;-69
2023/09/16 06:06:51;;;;;;;;;;;;;;;22.05;100.00;100166.41;5032211;28;1897;-69
2023/09/16 06:09:18;;;;;;;;;;;;;;;22.12;100.00;100159.66;5032153;28;820;-69
2023/09/16 06:11:45;;;;;;;;;;;;;;;21.89;100.00;100169.56;5032070;28;961;-69
2023/09/16 06:14:13;;;;;;;;;;;;;;;21.68;100.00;100168.50;5031838;28;1271;-69
2023/09/16 06:16:39;;;;;;;;;;;;;;;21.60;100.00;100166.00;5032132;28;868;-69
2023/09/16 06:19:06;;;;;;;;;;;;;;;21.92;100.00;100157.38;5032049;28;884;-69
2023/09/16 06:21:34;;;;;;;;;;;;;;;22.28;100.00;100159.31;5032006;28;819;-69
2023/09/16 06:24:01;;;;;;;;;;;;;;;22.58;100.00;100160.28;5032094;28;840;-70
2023/09/16 06:26:28;;;;;;;;;;;;;;;22.83;100.00;100163.91;5031919;28;1979;-70
2023/09/16 06:28:55;;;;;;;;;;;;;;;23.18;100.00;100166.97;5030749;28;1512;-69
2023/09/16 06:31:22;;;;;;;;;;;;;;;23.46;100.00;100166.75;5031830;28;821;-69
2023/09/16 06:33:50;;;;;;;;;;;;;;;23.67;100.00;100159.22;5031944;28;829;-69
2023/09/16 06:36:18;;;;;;;;;;;;;;;23.84;100.00;100162.38;5031801;28;871;-71
2023/09/16 06:38:45;;;;;;;;;;;;;;;24.18;100.00;100175.00;5031748;28;1195;-71
2023/09/16 06:41:12;;;;;;;;;;;;;;;25.08;100.00;100171.97;5031770;28;1236;-70
2023/09/16 07:12:35;;;;;;;;;;;;;;;29.48;89.65;100195.25;6128392;22;2028;-58
2023/09/16 07:15:03;;;;;;;;;;;;;;;30.25;86.12;100191.63;5011479;28;1660;-58
2023/09/16 07:17:32;;;;;;;;;;;;;;;30.58;73.20;100195.53;5012056;28;915;-57
2023/09/16 07:19:58;;;;;;;;;;;;;;;30.61;70.83;100194.44;5011726;28;840;-57
2023/09/16 07:22:25;;;;;;;;;;;;;;;30.64;71.19;100198.31;5012685;28;978;-57
2023/09/16 07:24:52;;;;;;;;;;;;;;;30.86;71.41;100200.19;5015672;28;887;-58
2023/09/16 07:27:18;;;;;;;;;;;;;;;30.86;69.34;100195.25;5015951;28;1981;-57
2023/09/16 07:29:45;;;;;;;;;;;;;;;31.02;69.52;100192.75;5015714;28;879;-57
2023/09/16 07:32:13;;;;;;;;;;;;;;;30.98;68.76;100204.44;5015591;28;891;-58
2023/09/16 07:37:41;;;;;;;;;;;;;;;31.25;63.59;100196.09;5015298;28;816;-57
2023/09/16 07:40:08;;;;;;;;;;;;;;;31.37;63.28;100205.28;5015331;28;849;-58
2023/09/16 07:42:35;;;;;;;;;;;;;;;31.34;62.87;100201.44;5015210;28;898;-57
2023/09/16 07:45:03;;;;;;;;;;;;;;;31.34;63.67;100207.13;5015231;28;832;-58
2023/09/16 07:47:32;;;;;;;;;;;;;;;31.33;63.51;100205.59;5013802;28;1938;-57
2023/09/16 07:49:59;;;;;;;;;;;;;;;31.52;62.97;100212.13;5015111;28;887;-57
2023/09/16 07:52:28;;;;;;;;;;;;;;;31.50;64.32;100208.28;5015112;28;890;-57
2023/09/16 07:55:00;;;;;;;;;;;;;;;31.86;63.77;100203.09;5014947;28;840;-58
2023/09/16 07:57:29;;;;;;;;;;;;;;;31.83;63.63;100214.81;5015060;28;936;-58
2023/09/16 07:59:56;;;;;;;;;;;;;;;31.56;63.31;100213.91;5014836;28;852;-58
2023/09/16 08:02:23;;;;;;;;;;;;;;;31.07;63.55;100212.66;5014976;28;936;-58
2023/09/16 08:04:50;;;;;;;;;;;;;;;31.25;64.08;100211.16;5013550;28;1268;-58
2023/09/16 08:07:18;;;;;;;;;;;;;;;31.53;62.76;100202.22;5014843;28;1952;-58
2023/09/16 08:09:45;;;;;;;;;;;;;;;31.43;63.33;100209.66;5014755;28;820;-58
2023/09/16 08:12:12;;;;;;;;;;;;;;;31.60;62.48;100217.22;5014530;28;1001;-58
2023/09/16 08:14:40;;;;;;;;;;;;;;;31.72;61.93;100218.59;5014426;28;1452;-58
2023/09/16 08:17:07;;;;;;;;;;;;;;;31.72;61.04;100219.38;5014757;28;812;-58
2023/09/16 08:19:34;;;;;;;;;;;;;;;31.38;59.62;100212.56;5014474;28;872;-58
2023/09/16 08:22:01;;;;;;;;;;;;;;;30.99;60.17;100222.38;5014815;28;820;-58
2023/09/16 08:24:29;;;;;;;;;;;;;;;30.63;60.60;100211.81;5014695;28;887;-58
2023/09/16 08:26:56;;;;;;;;;;;;;;;30.45;60.82;100213.28;5014491;28;1980;-58
2023/09/16 08:29:23;;;;;;;;;;;;;;;30.46;61.06;100211.97;5014368;28;885;-58
2023/09/16 08:31:50;;;;;;;;;;;;;;;30.47;60.45;100219.22;5014380;28;816;-58
2023/09/16 08:34:17;;;;;;;;;;;;;;;29.50;62.17;100214.66;5014211;28;852;-58
2023/09/16 08:36:44;;;;;;;;;;;;;;;29.76;62.61;100213.50;5014274;28;837;-58
2023/09/16 08:39:11;;;;;;;;;;;;;;;30.38;60.63;100216.69;5014243;28;888;-58
2023/09/16 08:41:39;;;;;;;;;;;;;;;31.02;59.91;100216.34;5014019;28;928;-58
2023/09/16 08:44:08;;;;;;;;;;;;;;;31.56;58.14;100219.59;5014171;28;867;-57
2023/09/16 08:46:40;;;;;;;;;;;;;;;31.79;57.74;100215.13;5013952;28;1890;-58
2023/09/16 08:49:07;;;;;;;;;;;;;;;32.26;55.81;100214.69;5014025;28;837;-58
2023/09/16 08:51:35;;;;;;;;;;;;;;;32.12;57.38;100215.97;5013919;28;828;-58
2023/09/16 08:54:04;;;;;;;;;;;;;;;31.21;59.13;100213.53;5013923;28;879;-58
2023/09/16 08:56:32;;;;;;;;;;;;;;;30.32;61.92;100211.06;5013913;28;876;-58
2023/09/16 08:59:00;;;;;;;;;;;;;;;29.76;63.92;100210.66;4996390;28;888;-58
2023/09/16 09:01:27;;;;;;;;;;;;;;;29.21;65.86;100208.31;5014377;28;871;-58
2023/09/16 09:03:54;;;;;;;;;;;;;;;28.74;68.12;100213.06;5014111;28;1282;-58
2023/09/16 09:06:22;;;;;;;;;;;;;;;28.34;69.59;100218.00;5014003;28;1890;-58
2023/09/16 09:08:50;;;;;;;;;;;;;;;27.99;70.78;100193.69;5013703;28;899;-58
2023/09/16 09:11:18;;;;;;;;;;;;;;;28.10;72.34;100213.56;5013754;28;896;-58
2023/09/16 09:13:45;;;;;;;;;;;;;;;28.01;73.24;100216.69;5022590;28;1210;-58
2023/09/16 09:16:15;;;;;;;;;;;;;;;27.89;73.83;100213.06;5033272;28;867;-58
2023/09/16 09:18:43;;;;;;;;;;;;;;;27.84;73.63;100208.09;5033216;28;878;-58
2023/09/16 09:21:10;;;;;;;;;;;;;;;27.65;74.04;100214.28;5033199;28;918;-58
2023/09/16 09:23:37;;;;;;;;;;;;;;;27.75;73.81;100211.19;5033190;28;824;-58
2023/09/16 09:26:04;;;;;;;;;;;;;;;28.01;73.64;100205.31;5033062;28;1927;-58
2023/09/16 09:28:32;;;;;;;;;;;;;;;28.43;71.99;100214.91;5033107;28;816;-58
2023/09/16 09:31:00;;;;;;;;;;;;;;;28.58;69.97;100191.91;5015273;28;1243;-58
2023/09/16 09:33:28;;;;;;;;;;;;;;;28.80;68.69;100196.75;5032969;28;857;-58
2023/09/16 09:36:11;;;;;;;;;;;;;;;28.89;68.10;100197.28;5033020;28;804;-58
2023/09/16 09:38:39;;;;;;;;;;;;;;;28.82;67.09;100197.03;5032892;28;864;-58
2023/09/16 09:41:07;;;;;;;;;;;;;;;29.15;66.27;100186.84;5032761;28;927;-58
2023/09/16 09:43:34;;;;;;;;;;;;;;;29.19;64.54;100187.34;5032603;28;943;-58
2023/09/16 09:46:01;;;;;;;;;;;;;;;29.78;63.15;100188.13;5032222;28;1889;-58
2023/09/16 09:48:31;;;;;;;;;;;;;;;30.65;60.60;100192.06;5032942;28;883;-58
2023/09/16 09:50:57;;;;;;;;;;;;;;;31.45;58.42;100187.06;5032675;28;812;-58
2023/09/16 09:53:24;;;;;;;;;;;;;;;31.90;56.95;100197.81;5032801;28;840;-58
2023/09/16 09:55:52;;;;;;;;;;;;;;;31.65;57.02;100185.72;5032529;28;907;-58
2023/09/16 09:58:19;;;;;;;;;;;;;;;31.14;57.55;100197.00;5032527;28;820;-58
2023/09/16 10:00:47;;;;;;;;;;;;;;;30.70;59.82;100199.81;5032488;28;824;-58
2023/09/16 10:03:15;;;;;;;;;;;;;;;30.16;62.35;100196.91;5032387;28;806;-58
2023/09/16 10:05:42;;;;;;;;;;;;;;;30.29;64.61;100197.09;5032292;28;1949;-58
2023/09/16 10:08:08;;;;;;;;;;;;;;;31.08;62.54;100196.31;5032500;28;820;-58
2023/09/16 10:10:36;;;;;;;;;;;;;;;31.64;61.89;100197.69;5032192;28;831;-58
2023/09/16 10:13:02;;;;;;;;;;;;;;;31.95;61.62;100194.09;5032366;28;1199;-58
2023/09/16 10:15:33;;;;;;;;;;;;;;;32.03;61.72;100193.47;5032551;28;804;-58
2023/09/16 10:18:00;;;;;;;;;;;;;;;32.34;60.48;100189.84;5032121;28;804;-57
2023/09/16 10:20:43;;;;;;;;;;;;;;;32.07;60.72;100196.78;5032120;28;852;-58
2023/09/16 10:23:11;;;;;;;;;;;;;;;32.22;60.92;100188.50;5032200;28;820;-57
2023/09/16 10:25:37;;;;;;;;;;;;;;;32.91;58.62;100197.44;5031864;28;1914;-57
2023/09/16 10:28:06;;;;;;;;;;;;;;;33.16;56.66;100192.28;5031886;28;887;-57
2023/09/16 10:30:34;;;;;;;;;;;;;;;32.96;55.96;100185.09;5032034;28;808;-57
2023/09/16 10:33:01;;;;;;;;;;;;;;;32.75;57.72;100182.91;5031901;28;936;-57
2023/09/16 10:35:30;;;;;;;;;;;;;;;32.34;57.73;100181.25;5031953;28;844;-57
2023/09/16 10:37:58;;;;;;;;;;;;;;;32.59;58.56;100180.34;5031848;28;877;-57
2023/09/16 10:40:26;;;;;;;;;;;;;;;32.85;57.98;100191.81;5031706;28;845;-57
2023/09/16 10:42:53;;;;;;;;;;;;;;;32.78;58.93;100183.13;5032063;28;855;-57
2023/09/16 10:45:21;;;;;;;;;;;;;;;31.88;59.93;100185.41;5014110;28;899;-57
2023/09/16 10:47:51;;;;;;;;;;;;;;;31.14;62.62;100177.03;5031589;28;1902;-58
2023/09/16 10:50:24;;;;;;;;;;;;;;;30.54;64.62;100180.78;5032012;28;872;-58
2023/09/16 10:52:57;;;;;;;;;;;;;;;29.85;66.20;100174.09;5031660;28;938;-58
2023/09/16 10:55:45;;;;;;;;;;;;;;;28.93;68.25;100177.06;5031726;28;867;-58
2023/09/16 10:58:30;;;;;;;;;;;;;;;28.29;72.45;100194.75;5003958;28;1086;-58
2023/09/16 11:00:59;;;;;;;;;;;;;;;27.83;74.50;100192.34;5035872;28;894;-58
2023/09/16 11:03:28;;;;;;;;;;;;;;;27.48;77.10;100205.69;5035702;28;942;-58
2023/09/16 11:05:57;;;;;;;;;;;;;;;26.98;79.36;100226.06;5035679;28;1958;-58
2023/09/16 11:08:25;;;;;;;;;;;;;;;26.07;86.34;100235.13;5035604;28;820;-58
2023/09/16 11:10:53;;;;;;;;;;;;;;;23.94;100.00;100231.56;5035671;28;824;-58
2023/09/16 11:13:20;;;;;;;;;;;;;;;21.18;100.00;100224.84;5035417;28;1417;-58
2023/09/16 11:15:47;;;;;;;;;;;;;;;19.22;100.00;100216.97;5035491;28;836;-58
2023/09/16 11:42:38;;;;;;;;;;;;;;;18.38;100.00;100170.44;5049461;28;694;-70
2023/09/16 11:45:05;;;;;;;;;;;;;;;18.61;100.00;100162.94;5037464;28;1053;-71
2023/09/16 11:47:32;;;;;;;;;;;;;;;18.97;100.00;100160.56;5054969;28;1886;-71
2023/09/16 11:49:58;;;;;;;;;;;;;;;19.44;100.00;100155.34;5037179;28;1174;-70
2023/09/16 11:52:25;;;;;;;;;;;;;;;19.82;100.00;100154.38;5055035;28;876;-70
2023/09/16 11:54:53;;;;;;;;;;;;;;;20.24;100.00;100151.97;5053713;28;1102;-70
2023/09/16 11:57:20;;;;;;;;;;;;;;;20.57;100.00;100165.53;5054765;28;839;-71
2023/09/16 11:59:48;;;;;;;;;;;;;;;20.87;100.00;100166.72;5070314;28;1191;-70
2023/09/16 12:02:14;;;;;;;;;;;;;;;20.96;100.00;100175.16;5054940;28;776;-71
2023/09/16 12:04:41;;;;;;;;;;;;;;;21.00;100.00;100189.06;5054741;28;887;-70
2023/09/16 12:07:08;;;;;;;;;;;;;;;20.93;100.00;100186.53;5054456;28;1953;-70
2023/09/16 12:09:36;;;;;;;;;;;;;;;20.79;100.00;100185.91;5054024;28;906;-70
2023/09/16 12:12:05;;;;;;;;;;;;;;;20.97;100.00;100190.78;5053088;28;1172;-70
2023/09/16 12:14:31;;;;;;;;;;;;;;;21.08;100.00;100187.53;5054253;28;1439;-69
2023/09/16 12:16:58;;;;;;;;;;;;;;;21.03;100.00;100181.75;5054420;28;1001;-68
2023/09/16 12:19:25;;;;;;;;;;;;;;;20.94;100.00;100182.50;5054366;28;843;-69
2023/09/16 12:21:50;;;;;;;;;;;;;;;20.88;100.00;100179.50;5053061;28;1311;-68
2023/09/16 12:24:18;;;;;;;;;;;;;;;20.81;100.00;100174.19;5054170;28;894;-68
2023/09/16 12:26:45;;;;;;;;;;;;;;;20.80;100.00;100164.19;5052866;28;1910;-68
2023/09/16 12:29:12;;;;;;;;;;;;;;;20.91;100.00;100170.19;5054096;28;864;-68
2023/09/16 12:31:39;;;;;;;;;;;;;;;20.95;100.00;100168.00;5054083;28;867;-67
2023/09/16 12:34:05;;;;;;;;;;;;;;;21.06;100.00;100156.31;5054007;28;966;-67
2023/09/16 12:36:32;;;;;;;;;;;;;;;20.90;100.00;100160.16;5053993;28;895;-67
2023/09/16 12:39:02;;;;;;;;;;;;;;;20.74;100.00;100157.63;5053844;28;843;-66
2023/09/16 12:41:29;;;;;;;;;;;;;;;20.75;100.00;100156.41;5053928;28;827;-66
2023/09/16 12:43:56;;;;;;;;;;;;;;;20.90;100.00;100162.97;5053925;28;847;-66
2023/09/16 12:46:24;;;;;;;;;;;;;;;20.84;100.00;100164.06;5053694;28;1949;-66
2023/09/16 12:48:51;;;;;;;;;;;;;;;20.52;100.00;100169.69;5069179;28;1310;-66
2023/09/16 12:51:19;;;;;;;;;;;;;;;20.44;100.00;100171.25;5053738;28;871;-66
2023/09/16 12:53:47;;;;;;;;;;;;;;;20.40;100.00;100174.19;5053802;28;816;-66
2023/09/16 12:56:19;;;;;;;;;;;;;;;20.46;100.00;100173.56;5053566;28;925;-66
2023/09/16 12:58:48;;;;;;;;;;;;;;;20.67;100.00;100183.22;5053987;28;906;-66
2023/09/16 13:01:23;;;;;;;;;;;;;;;20.76;100.00;100181.22;5053559;28;815;-66
2023/09/16 13:03:50;;;;;;;;;;;;;;;20.90;100.00;100182.63;5053477;28;905;-66
2023/09/16 13:06:17;;;;;;;;;;;;;;;20.95;100.00;100179.25;5053356;28;1945;-66
2023/09/16 13:08:43;;;;;;;;;;;;;;;20.93;100.00;100189.34;5053346;28;871;-65
2023/09/16 13:11:11;;;;;;;;;;;;;;;20.94;100.00;100191.72;5053347;28;885;-65
2023/09/16 13:13:39;;;;;;;;;;;;;;;20.97;100.00;100201.22;5053155;28;1365;-65
2023/09/16 13:16:07;;;;;;;;;;;;;;;20.93;100.00;100195.78;5052036;28;1231;-64
2023/09/16 13:18:40;;;;;;;;;;;;;;;20.93;100.00;100192.97;5053129;28;1293;-64
2023/09/16 13:21:07;;;;;;;;;;;;;;;21.03;100.00;100188.13;5052364;28;840;-63
2023/09/16 13:23:34;;;;;;;;;;;;;;;21.11;100.00;100189.41;5053037;28;894;-63
2023/09/16 13:26:15;;;;;;;;;;;;;;;21.21;100.00;100190.97;5052986;28;1909;-63
2023/09/16 13:28:55;;;;;;;;;;;;;;;21.28;100.00;100206.75;5053034;28;832;-62
2023/09/16 13:31:24;;;;;;;;;;;;;;;21.39;100.00;100203.47;5053156;28;855;-62
2023/09/16 13:34:04;;;;;;;;;;;;;;;21.42;100.00;100205.38;5052957;28;842;-62
2023/09/16 13:36:34;;;;;;;;;;;;;;;21.32;100.00;100207.38;5052704;28;847;-62
2023/09/16 13:39:03;;;;;;;;;;;;;;;21.29;100.00;100208.31;5053085;28;820;-62
2023/09/16 13:41:30;;;;;;;;;;;;;;;21.36;100.00;100193.97;5052757;28;876;-62
2023/09/16 13:43:57;;;;;;;;;;;;;;;21.38;100.00;100187.88;5052670;28;870;-62
2023/09/16 13:46:25;;;;;;;;;;;;;;;21.47;100.00;100190.72;5052560;28;1947;-62